nws-alerts: Checking more than four warning/county codes can delay the loading of your pages. You should use a cron job to get the data.

Nearby METAR Reports

 

KOXC - Oxford/Waterbury, Connecticut, USA
Distance from station: NW 7mi, 11km
Updated: 05/19/2022 4:51am
Rain, Mist, Overcast
Rain, Mist, Overcast
 Wind from ESE
Wind: ESE 5 mph , 7 km/h
Temperature: 52°F , 11°C
Dew Point: 52°F , 11°C
Humidity: 100%
Barometer: 29.83 inHg , 1010.2 hPa
Summary: Rain, Mist
Clouds: Overcast
Visibility: 5 miles , 8 km
Cloud details: Partly cloudy 4700 ft
Overcast 7000 ft
2022/05/19 08:51 KOXC 190851Z AUTO 12004KT 5SM RA BR SCT047 OVC070 11/11 A2983 RMK AO2 SLP112 P0007 60013 T01110106 58020
KHVN - New Haven/Tweed, Connecticut, USA
Distance from station: SE 13mi, 20km
Updated: 05/19/2022 1:53am
NOT Current
Overcast
Overcast
 Wind from calm
Wind: Calm
Temperature: 59°F , 15°C
Dew Point: 54°F , 12°C
Humidity: 82%
Barometer: 29.88 inHg , 1011.9 hPa
Clouds: Overcast
Visibility: 10 miles , 16 km
Cloud details: Mostly cloudy 9000 ft
Overcast 10000 ft
2022/05/19 05:53 KHVN 190553Z AUTO 00000KT 10SM BKN090 OVC100 15/12 A2988 RMK AO2 RAB34E49 SLP117 P0000 60000 T01500117 10178 20144 58002
 
KMMK - Meriden, Connecticut, USA
Distance from station: NE 13mi, 21km
Updated: 05/19/2022 4:53am
Light rain, Overcast
Light rain, Overcast
 Wind from calm
Wind: Calm
Temperature: 55°F , 13°C
Dew Point: 52°F , 11°C
Humidity: 88%
Barometer: 29.84 inHg , 1010.5 hPa
Summary: Light rain
Clouds: Overcast
Visibility: 8 miles , 13 km
Cloud details: Mostly cloudy 5000 ft
Overcast 6500 ft
2022/05/19 08:53 KMMK 190853Z AUTO 00000KT 8SM -RA BKN050 OVC065 13/11 A2984 RMK AO2 SLP103 P0005 60010 T01280111 58014
KBDR - Bridgeport, Connecticut, USA
Distance from station: SSW 17mi, 27km
Updated: 05/19/2022 1:52am
NOT Current
Light rain, Overcast
Light rain, Overcast
 Wind from SSW
Wind: SSW 3 mph , 6 km/h
Temperature: 57°F , 14°C
Dew Point: 54°F , 12°C
Humidity: 88%
Barometer: 29.88 inHg , 1011.9 hPa
Summary: Light rain
Clouds: Overcast
Visibility: 10 miles , 16 km
Cloud details: Mostly cloudy 9500 ft
Overcast 11000 ft
2022/05/19 05:52 KBDR 190552Z AUTO 20003KT 10SM -RA BKN095 OVC110 14/12 A2988 RMK AO2 SLP118 P0002 60002 T01390117 10167 20133 50002 $
 
KDXR - Danbury, Connecticut, USA
Distance from station: W 23mi, 38km
Updated: 05/19/2022 1:53am
NOT Current
Light rain, Overcast
Light rain, Overcast
 Wind from WSW
Wind: WSW 5 mph , 7 km/h
Temperature: 57°F , 14°C
Dew Point: 52°F , 11°C
Humidity: 82%
Barometer: 29.89 inHg , 1012.2 hPa
Summary: Light rain
Clouds: Overcast
Visibility: 10 miles , 16 km
Cloud details: Mostly cloudy 6000 ft
Overcast 8000 ft
2022/05/19 05:53 KDXR 190553Z AUTO 24004KT 10SM -RA BKN060 OVC080 14/11 A2989 RMK AO2 SLP120 P0001 60001 T01390106 10189 20139 50006